createdAt,value
2018-05-07T00:02:15.817Z,11.59
2018-05-07T00:04:44.629Z,11.50
2018-05-07T00:07:13.005Z,11.43
2018-05-07T00:09:40.683Z,11.40
2018-05-07T00:12:08.109Z,11.39
2018-05-07T00:14:35.607Z,11.42
2018-05-07T00:17:03.153Z,11.43
2018-05-07T00:19:30.655Z,11.44
2018-05-07T00:21:58.215Z,11.41
2018-05-07T00:24:26.321Z,11.39
2018-05-07T00:26:53.940Z,11.38
2018-05-07T00:29:21.552Z,11.36
2018-05-07T00:31:49.136Z,11.33
2018-05-07T00:34:17.456Z,11.29
2018-05-07T00:36:45.021Z,11.29
2018-05-07T00:39:12.883Z,11.28
2018-05-07T00:41:40.488Z,11.29
2018-05-07T00:44:08.062Z,11.24
2018-05-07T00:46:35.620Z,11.15
2018-05-07T00:49:03.272Z,11.19
2018-05-07T00:51:30.874Z,11.14
2018-05-07T00:53:58.478Z,11.12
2018-05-07T00:59:16.555Z,11.20
2018-05-07T01:01:45.174Z,11.15
2018-05-07T01:04:12.753Z,11.06
2018-05-07T01:06:40.337Z,11.06
2018-05-07T01:09:07.951Z,11.11
2018-05-07T01:11:35.643Z,11.18
2018-05-07T01:14:03.211Z,11.18
2018-05-07T01:16:30.813Z,11.25
2018-05-07T01:18:58.417Z,11.34
2018-05-07T01:21:26.013Z,11.36
2018-05-07T01:23:53.616Z,11.40
2018-05-07T01:26:21.220Z,11.46
2018-05-07T01:28:48.810Z,11.51
2018-05-07T01:31:16.367Z,11.54
2018-05-07T01:33:43.934Z,11.55
2018-05-07T01:36:11.546Z,11.56
2018-05-07T01:38:39.080Z,11.49
2018-05-07T01:41:06.917Z,11.51
2018-05-07T01:43:34.483Z,11.55
2018-05-07T01:46:02.076Z,11.60
2018-05-07T01:48:29.643Z,11.65
2018-05-07T01:50:57.191Z,11.69
2018-05-07T01:53:24.951Z,11.70
2018-05-07T01:55:52.576Z,11.70
2018-05-07T01:58:20.201Z,11.69
2018-05-07T02:00:47.798Z,11.66
2018-05-07T02:03:16.024Z,11.59
2018-05-07T02:05:43.619Z,11.60
2018-05-07T02:08:11.213Z,11.62
2018-05-07T02:10:38.843Z,11.56
2018-05-07T02:13:06.484Z,11.58
2018-05-07T02:15:34.065Z,11.57
2018-05-07T02:18:01.655Z,11.50
2018-05-07T02:20:29.241Z,11.48
2018-05-07T02:22:56.823Z,11.38
2018-05-07T02:25:24.467Z,11.35
2018-05-07T02:27:52.027Z,11.34
2018-05-07T02:30:19.579Z,11.30
2018-05-07T02:32:47.204Z,11.28
2018-05-07T02:35:14.705Z,11.30
2018-05-07T02:37:42.268Z,11.27
2018-05-07T02:40:09.898Z,11.30
2018-05-07T02:42:37.429Z,11.26
2018-05-07T02:45:05.021Z,11.24
2018-05-07T02:47:32.594Z,11.27
2018-05-07T02:50:00.171Z,11.26
2018-05-07T02:52:27.935Z,11.19
2018-05-07T02:54:55.504Z,11.14
2018-05-07T02:57:23.182Z,11.07
2018-05-07T02:59:50.729Z,11.07
2018-05-07T03:02:18.309Z,11.10
2018-05-07T03:04:45.912Z,11.12
2018-05-07T03:07:13.971Z,11.11
2018-05-07T03:09:41.923Z,11.14
2018-05-07T03:12:09.926Z,11.15
2018-05-07T03:14:37.837Z,11.12
2018-05-07T03:17:05.437Z,11.09
2018-05-07T03:19:33.252Z,11.11
2018-05-07T03:22:00.815Z,11.10
2018-05-07T03:24:28.458Z,11.10
2018-05-07T03:26:56.063Z,11.04
2018-05-07T03:29:23.802Z,10.89
2018-05-07T03:31:51.372Z,10.80
2018-05-07T03:34:18.951Z,10.84
2018-05-07T03:36:46.522Z,10.80
2018-05-07T03:42:04.164Z,10.90
2018-05-07T03:44:31.781Z,10.90
2018-05-07T03:46:59.359Z,10.87
2018-05-07T03:49:26.945Z,10.84
2018-05-07T03:51:54.533Z,10.85
2018-05-07T03:54:22.107Z,10.84
2018-05-07T03:56:49.767Z,10.86
2018-05-07T03:59:17.335Z,10.85
2018-05-07T04:01:44.906Z,10.91
2018-05-07T04:04:12.505Z,10.88
2018-05-07T04:06:40.981Z,10.89
2018-05-07T04:09:08.520Z,10.84
2018-05-07T04:11:36.103Z,10.84
2018-05-07T04:14:03.766Z,10.84
2018-05-07T04:16:43.138Z,10.74
2018-05-07T04:19:22.618Z,10.73
2018-05-07T04:22:02.053Z,10.77
2018-05-07T04:24:29.621Z,10.84
2018-05-07T04:26:57.162Z,10.83
2018-05-07T04:29:24.809Z,10.89
2018-05-07T04:31:52.422Z,11.05
2018-05-07T04:34:20.011Z,11.02
2018-05-07T04:36:47.607Z,11.07
2018-05-07T04:39:15.157Z,11.13
2018-05-07T04:41:42.734Z,11.18
2018-05-07T04:44:10.292Z,11.23
2018-05-07T04:46:37.945Z,11.29
2018-05-07T04:49:05.484Z,11.33
2018-05-07T04:51:33.147Z,11.38
2018-05-07T04:54:00.737Z,11.42
2018-05-07T04:56:28.336Z,11.40
2018-05-07T04:58:55.963Z,11.51
2018-05-07T05:01:23.533Z,11.58
2018-05-07T05:03:51.135Z,11.65
2018-05-07T05:06:18.794Z,11.71
2018-05-07T05:08:46.331Z,11.78
2018-05-07T05:11:13.913Z,11.85
2018-05-07T05:13:41.516Z,11.92
2018-05-07T05:16:09.090Z,12.01
2018-05-07T05:18:36.657Z,12.07
2018-05-07T05:21:04.378Z,12.17
2018-05-07T05:23:31.857Z,12.24
2018-05-07T05:25:59.377Z,12.31
2018-05-07T05:28:26.879Z,12.41
2018-05-07T05:30:54.482Z,12.50
2018-05-07T05:33:22.069Z,12.60
2018-05-07T05:35:49.710Z,12.70
2018-05-07T05:38:17.346Z,12.79
2018-05-07T05:40:44.958Z,12.90
2018-05-07T05:43:12.584Z,13.02
2018-05-07T05:45:40.215Z,13.11
2018-05-07T05:48:07.906Z,13.27
2018-05-07T05:50:35.519Z,13.39
2018-05-07T05:53:03.093Z,13.49
2018-05-07T05:55:31.132Z,13.60
2018-05-07T05:57:58.763Z,13.72
2018-05-07T06:00:26.334Z,13.86
2018-05-07T06:02:54.010Z,13.96
2018-05-07T06:05:21.654Z,14.05
2018-05-07T06:07:49.197Z,14.17
2018-05-07T06:10:16.708Z,14.33
2018-05-07T06:12:44.282Z,14.45
2018-05-07T06:15:13.103Z,14.59
2018-05-07T06:17:41.078Z,14.74
2018-05-07T06:20:08.816Z,14.86
2018-05-07T06:22:36.407Z,14.95
2018-05-07T06:25:03.929Z,15.09
2018-05-07T06:27:31.501Z,15.21
2018-05-07T06:29:59.199Z,15.33
2018-05-07T06:32:26.744Z,15.46
2018-05-07T06:34:54.417Z,15.56
2018-05-07T06:37:22.696Z,15.66
2018-05-07T06:39:50.371Z,15.77
2018-05-07T06:42:17.936Z,15.93
2018-05-07T06:44:45.522Z,16.04
2018-05-07T06:47:13.109Z,16.13
2018-05-07T06:49:40.956Z,16.21
2018-05-07T06:52:08.710Z,16.32
2018-05-07T06:54:36.284Z,16.43
2018-05-07T06:57:03.867Z,16.54
2018-05-07T06:59:31.425Z,16.65
2018-05-07T07:01:59.030Z,16.74
2018-05-07T07:04:26.580Z,16.89
2018-05-07T07:06:54.086Z,16.95
2018-05-07T07:09:21.656Z,17.05
2018-05-07T07:11:49.235Z,17.19
2018-05-07T07:14:16.861Z,17.32
2018-05-07T07:16:44.434Z,17.45
2018-05-07T07:19:12.275Z,17.53
2018-05-07T07:21:39.972Z,17.59
2018-05-07T07:24:07.593Z,17.63
2018-05-07T07:26:35.269Z,17.72
2018-05-07T07:29:02.849Z,17.80
2018-05-07T07:31:30.445Z,17.90
2018-05-07T07:33:58.107Z,17.92
2018-05-07T07:36:25.612Z,17.96
2018-05-07T07:38:53.205Z,18.10
2018-05-07T07:41:21.368Z,18.16
2018-05-07T07:43:48.966Z,18.25
2018-05-07T07:46:16.593Z,18.35
2018-05-07T07:48:44.187Z,18.39
2018-05-07T07:51:11.832Z,18.31
2018-05-07T07:53:39.559Z,18.40
2018-05-07T07:56:07.111Z,18.50
2018-05-07T07:58:38.189Z,18.69
2018-05-07T08:01:05.730Z,18.76
2018-05-07T08:03:34.115Z,18.78
2018-05-07T08:06:01.716Z,18.79
2018-05-07T08:08:29.474Z,18.93
2018-05-07T08:10:57.071Z,18.93
2018-05-07T08:13:25.155Z,18.90
2018-05-07T08:15:52.802Z,19.03
2018-05-07T08:18:20.509Z,18.93
2018-05-07T08:20:48.076Z,18.97
2018-05-07T08:23:15.714Z,19.15
2018-05-07T08:25:43.276Z,19.25
2018-05-07T08:28:10.836Z,19.36
2018-05-07T08:30:38.464Z,19.53
2018-05-07T08:33:06.048Z,19.70
2018-05-07T08:35:34.120Z,19.64
2018-05-07T08:38:01.718Z,19.64
2018-05-07T08:40:29.333Z,19.67
2018-05-07T08:42:56.931Z,19.76
2018-05-07T08:45:24.528Z,19.78
2018-05-07T08:47:52.135Z,19.86
2018-05-07T08:50:19.759Z,19.90
2018-05-07T08:52:47.433Z,19.87
2018-05-07T08:55:14.945Z,19.83
2018-05-07T08:57:42.607Z,19.83
2018-05-07T09:00:10.192Z,19.79
2018-05-07T09:02:37.764Z,19.70
2018-05-07T09:05:05.358Z,19.64
2018-05-07T09:07:33.171Z,19.65
2018-05-07T09:10:00.861Z,19.65
2018-05-07T09:12:28.475Z,19.64
2018-05-07T09:14:56.116Z,19.59
2018-05-07T09:17:23.869Z,19.80
2018-05-07T09:19:51.452Z,20.03
2018-05-07T09:22:19.068Z,20.33
2018-05-07T09:24:46.731Z,20.48
2018-05-07T09:27:14.365Z,20.65
2018-05-07T09:29:42.025Z,20.75
2018-05-07T09:32:09.592Z,20.72
2018-05-07T09:34:37.368Z,20.65
2018-05-07T09:37:05.206Z,20.75
2018-05-07T09:39:33.109Z,20.92
2018-05-07T09:42:00.700Z,20.91
2018-05-07T09:44:28.467Z,21.16
2018-05-07T09:46:56.032Z,21.07
2018-05-07T09:49:23.645Z,21.30
2018-05-07T09:51:51.240Z,21.54
2018-05-07T09:54:18.807Z,21.81
2018-05-07T09:56:55.294Z,22.04
2018-05-07T09:59:22.858Z,22.25
2018-05-07T10:01:50.427Z,22.49
2018-05-07T10:04:18.045Z,22.45
2018-05-07T10:06:46.045Z,22.50
2018-05-07T10:09:13.645Z,22.60
2018-05-07T10:11:41.237Z,22.70
2018-05-07T10:14:08.847Z,22.64
2018-05-07T10:16:36.521Z,22.51
2018-05-07T10:19:04.136Z,22.49
2018-05-07T10:21:31.716Z,22.62
2018-05-07T10:23:59.289Z,22.59
2018-05-07T10:26:26.860Z,22.79
2018-05-07T10:28:54.489Z,23.04
2018-05-07T10:31:22.712Z,23.11
2018-05-07T10:33:50.296Z,23.15
2018-05-07T10:36:17.918Z,23.17
2018-05-07T10:38:45.513Z,23.08
2018-05-07T10:41:13.159Z,23.19
2018-05-07T10:43:40.778Z,23.38
2018-05-07T10:46:09.370Z,23.32
2018-05-07T10:48:37.076Z,23.21
2018-05-07T10:51:04.685Z,23.10
2018-05-07T10:53:32.255Z,23.27
2018-05-07T10:55:59.835Z,23.29
2018-05-07T10:58:27.495Z,23.52
2018-05-07T11:00:55.137Z,23.80
2018-05-07T11:03:22.741Z,24.02
2018-05-07T11:05:50.323Z,23.98
2018-05-07T11:08:17.954Z,24.09
2018-05-07T11:10:45.547Z,24.30
2018-05-07T11:13:13.275Z,24.45
2018-05-07T11:15:40.878Z,24.58
2018-05-07T11:18:08.468Z,24.63
2018-05-07T11:20:36.118Z,24.75
2018-05-07T11:23:03.641Z,24.85
2018-05-07T11:25:31.216Z,24.92
2018-05-07T11:27:58.813Z,24.98
2018-05-07T11:30:26.361Z,24.97
2018-05-07T11:32:53.965Z,24.79
2018-05-07T11:35:21.587Z,24.70
2018-05-07T11:37:49.226Z,24.80
2018-05-07T11:40:16.782Z,24.94
2018-05-07T11:42:44.338Z,25.13
2018-05-07T11:45:12.157Z,25.31
2018-05-07T11:47:39.726Z,25.38
2018-05-07T11:50:07.212Z,25.50
2018-05-07T11:52:34.840Z,25.62
2018-05-07T11:55:02.397Z,25.71
2018-05-07T11:57:30.101Z,25.84
2018-05-07T11:59:57.720Z,26.03
2018-05-07T12:02:34.520Z,26.17
2018-05-07T12:05:02.137Z,26.17
2018-05-07T12:07:29.706Z,25.46
2018-05-07T12:09:57.261Z,25.49
2018-05-07T12:12:24.831Z,25.67
2018-05-07T12:14:52.413Z,25.80
2018-05-07T12:17:19.999Z,26.01
2018-05-07T12:19:47.598Z,26.16
2018-05-07T12:22:15.203Z,26.26
2018-05-07T12:24:42.809Z,26.39
2018-05-07T12:27:11.134Z,26.49
2018-05-07T12:29:38.740Z,26.49
2018-05-07T12:32:06.329Z,26.57
2018-05-07T12:34:33.927Z,26.62
2018-05-07T12:37:01.523Z,26.67
2018-05-07T12:39:29.089Z,26.70
2018-05-07T12:41:56.667Z,26.89
2018-05-07T12:44:24.275Z,27.04
2018-05-07T12:46:51.844Z,27.09
2018-05-07T12:49:19.455Z,27.09
2018-05-07T12:51:47.107Z,26.94
2018-05-07T12:54:14.684Z,27.00
2018-05-07T12:56:42.268Z,26.99
2018-05-07T12:59:09.865Z,27.18
2018-05-07T13:01:37.443Z,27.36
2018-05-07T13:04:05.054Z,27.45
2018-05-07T13:06:32.637Z,27.52
2018-05-07T13:09:00.224Z,27.58
2018-05-07T13:11:27.853Z,27.53
2018-05-07T13:13:55.428Z,27.38
2018-05-07T13:16:23.022Z,27.32
2018-05-07T13:18:50.632Z,27.29
2018-05-07T13:21:18.314Z,27.27
2018-05-07T13:23:45.919Z,27.31
2018-05-07T13:26:13.537Z,27.15
2018-05-07T13:28:41.171Z,26.29
2018-05-07T13:31:08.760Z,26.24
2018-05-07T13:33:36.268Z,26.29
2018-05-07T13:36:03.846Z,26.15
2018-05-07T13:38:31.414Z,25.99
2018-05-07T13:40:58.989Z,25.98
2018-05-07T13:43:26.599Z,25.59
2018-05-07T13:45:54.189Z,25.68
2018-05-07T13:48:21.803Z,25.74
2018-05-07T13:50:49.488Z,25.56
2018-05-07T13:53:17.052Z,25.54
2018-05-07T13:55:44.611Z,25.39
2018-05-07T13:58:12.192Z,25.35
2018-05-07T14:00:39.774Z,25.16
2018-05-07T14:03:07.404Z,24.90
2018-05-07T14:05:38.224Z,24.84
2018-05-07T14:08:06.500Z,25.13
2018-05-07T14:10:34.079Z,25.38
2018-05-07T14:13:01.667Z,25.54
2018-05-07T14:15:29.243Z,25.53
2018-05-07T14:17:56.822Z,25.66
2018-05-07T14:20:24.455Z,25.82
2018-05-07T14:22:52.047Z,25.65
2018-05-07T14:25:19.637Z,25.49
2018-05-07T14:27:47.228Z,25.05
2018-05-07T14:30:14.837Z,25.05
2018-05-07T14:32:42.448Z,25.06
2018-05-07T14:35:10.099Z,25.22
2018-05-07T14:37:37.703Z,25.58
2018-05-07T14:40:05.307Z,25.93
2018-05-07T14:42:33.016Z,26.23
2018-05-07T14:45:00.628Z,26.45
2018-05-07T14:47:28.224Z,26.49
2018-05-07T14:49:55.870Z,26.39
2018-05-07T14:52:23.449Z,26.41
2018-05-07T14:54:51.034Z,26.36
2018-05-07T14:57:18.600Z,26.40
2018-05-07T14:59:46.172Z,26.55
2018-05-07T15:02:13.767Z,26.73
2018-05-07T15:04:41.401Z,26.72
2018-05-07T15:07:09.220Z,26.80
2018-05-07T15:09:36.848Z,26.92
2018-05-07T15:12:04.405Z,27.08
2018-05-07T15:14:32.051Z,27.04
2018-05-07T15:16:59.614Z,27.06
2018-05-07T15:19:27.205Z,27.08
2018-05-07T15:21:54.753Z,27.01
2018-05-07T15:24:22.375Z,27.04
2018-05-07T15:26:49.974Z,27.09
2018-05-07T15:29:17.655Z,26.83
2018-05-07T15:31:45.197Z,26.85
2018-05-07T15:34:12.807Z,26.48
2018-05-07T15:36:40.525Z,26.51
2018-05-07T15:39:08.113Z,26.54
2018-05-07T15:41:35.797Z,26.56
2018-05-07T15:44:03.395Z,26.54
2018-05-07T15:46:31.008Z,26.62
2018-05-07T15:48:58.589Z,26.63
2018-05-07T15:51:26.205Z,26.69
2018-05-07T15:53:53.801Z,26.65
2018-05-07T15:56:21.412Z,26.67
2018-05-07T15:58:48.959Z,26.53
2018-05-07T16:01:16.568Z,26.49
2018-05-07T16:03:44.209Z,26.23
2018-05-07T16:06:11.829Z,26.09
2018-05-07T16:08:39.409Z,26.06
2018-05-07T16:11:07.235Z,26.03
2018-05-07T16:13:34.942Z,25.98
2018-05-07T16:16:02.555Z,25.98
2018-05-07T16:18:30.181Z,26.08
2018-05-07T16:20:57.780Z,26.14
2018-05-07T16:23:25.399Z,26.07
2018-05-07T16:25:53.892Z,26.02
2018-05-07T16:28:21.521Z,25.90
2018-05-07T16:30:49.035Z,25.83
2018-05-07T16:33:16.588Z,25.69
2018-05-07T16:35:44.154Z,25.70
2018-05-07T16:38:11.759Z,25.64
2018-05-07T16:40:39.339Z,25.59
2018-05-07T16:43:06.973Z,25.56
2018-05-07T16:45:34.613Z,25.54
2018-05-07T16:48:02.222Z,25.47
2018-05-07T16:50:29.826Z,25.28
2018-05-07T16:52:57.401Z,25.16
2018-05-07T16:55:24.978Z,25.11
2018-05-07T16:57:52.578Z,25.02
2018-05-07T17:00:20.146Z,24.97
2018-05-07T17:02:47.721Z,24.88
2018-05-07T17:05:15.595Z,24.70
2018-05-07T17:07:43.203Z,24.54
2018-05-07T17:10:10.774Z,24.43
2018-05-07T17:12:38.361Z,24.44
2018-05-07T17:15:05.908Z,24.34
2018-05-07T17:17:33.426Z,24.25
2018-05-07T17:20:01.022Z,24.21
2018-05-07T17:22:28.573Z,24.07
2018-05-07T17:24:56.110Z,23.90
2018-05-07T17:27:23.641Z,23.70
2018-05-07T17:29:51.206Z,23.57
2018-05-07T17:32:18.711Z,23.43
2018-05-07T17:34:46.279Z,23.27
2018-05-07T17:37:13.895Z,23.09
2018-05-07T17:39:41.603Z,22.86
2018-05-07T17:42:09.267Z,22.60
2018-05-07T17:44:48.578Z,22.50
2018-05-07T17:47:27.922Z,22.40
2018-05-07T17:49:55.619Z,22.32
2018-05-07T17:52:23.231Z,22.19
2018-05-07T17:54:50.871Z,22.02
2018-05-07T17:57:18.468Z,21.93
2018-05-07T17:59:46.086Z,21.74
2018-05-07T18:02:13.696Z,21.61
2018-05-07T18:04:41.270Z,21.47
2018-05-07T18:07:08.976Z,21.26
2018-05-07T18:09:37.289Z,21.10
2018-05-07T18:12:06.854Z,20.96
2018-05-07T18:14:35.297Z,20.80
2018-05-07T18:17:04.359Z,20.64
2018-05-07T18:19:32.771Z,20.54
2018-05-07T18:22:02.708Z,20.38
2018-05-07T18:24:31.853Z,20.29
2018-05-07T18:26:59.886Z,20.08
2018-05-07T18:29:28.506Z,19.87
2018-05-07T18:31:56.169Z,19.76
2018-05-07T18:34:25.531Z,19.57
2018-05-07T18:36:55.417Z,19.52
2018-05-07T18:39:23.893Z,19.52
2018-05-07T18:41:52.696Z,19.40
2018-05-07T18:44:21.608Z,19.24
2018-05-07T18:46:49.459Z,19.05
2018-05-07T18:49:17.108Z,18.89
2018-05-07T18:51:44.843Z,18.72
2018-05-07T18:54:12.426Z,18.64
2018-05-07T18:56:40.060Z,18.47
2018-05-07T18:59:07.666Z,18.41
2018-05-07T19:01:35.241Z,18.46
2018-05-07T19:04:02.775Z,18.46
2018-05-07T19:06:30.405Z,18.35
2018-05-07T19:08:57.930Z,18.27
2018-05-07T19:11:25.584Z,18.14
2018-05-07T19:13:53.220Z,18.01
2018-05-07T19:16:20.851Z,17.91
2018-05-07T19:18:48.429Z,17.81
2018-05-07T19:21:16.051Z,17.74
2018-05-07T19:23:44.970Z,17.64
2018-05-07T19:26:13.728Z,17.42
2018-05-07T19:28:41.356Z,17.17
2018-05-07T19:31:09.168Z,17.14
2018-05-07T19:33:37.972Z,17.18
2018-05-07T19:36:05.706Z,17.16
2018-05-07T19:38:33.317Z,17.06
2018-05-07T19:41:00.968Z,16.94
2018-05-07T19:43:28.669Z,16.84
2018-05-07T19:45:56.393Z,16.72
2018-05-07T19:48:24.077Z,16.72
2018-05-07T19:50:51.656Z,16.57
2018-05-07T19:53:19.504Z,16.48
2018-05-07T19:55:47.239Z,16.39
2018-05-07T19:58:14.782Z,16.23
2018-05-07T20:00:42.552Z,16.18
2018-05-07T20:03:11.571Z,16.06
2018-05-07T20:05:41.702Z,16.15
2018-05-07T20:08:12.601Z,16.11
2018-05-07T20:10:40.177Z,16.13
2018-05-07T20:13:07.762Z,16.00
2018-05-07T20:15:35.330Z,15.85
2018-05-07T20:18:04.232Z,15.78
2018-05-07T20:20:31.916Z,15.66
2018-05-07T20:22:59.592Z,15.66
2018-05-07T20:25:28.891Z,15.54
2018-05-07T20:27:58.894Z,15.52
2018-05-07T20:30:26.776Z,15.55
2018-05-07T20:32:54.512Z,15.31
2018-05-07T20:35:22.222Z,15.24
2018-05-07T20:37:49.906Z,15.21
2018-05-07T20:40:17.596Z,15.24
2018-05-07T20:42:45.247Z,15.21
2018-05-07T20:45:12.848Z,15.26
2018-05-07T20:47:40.410Z,15.18
2018-05-07T20:50:07.988Z,15.10
2018-05-07T20:52:35.710Z,15.17
2018-05-07T20:55:03.440Z,14.93
2018-05-07T20:57:32.013Z,14.85
2018-05-07T20:59:59.504Z,14.84
2018-05-07T21:02:27.035Z,14.81
2018-05-07T21:04:54.531Z,14.86
2018-05-07T21:07:22.094Z,14.90
2018-05-07T21:09:50.880Z,14.77
2018-05-07T21:12:18.495Z,14.70
2018-05-07T21:14:46.094Z,14.59
2018-05-07T21:17:14.003Z,14.45
2018-05-07T21:19:42.036Z,14.32
2018-05-07T21:22:09.701Z,14.19
2018-05-07T21:24:37.331Z,14.08
2018-05-07T21:27:05.469Z,13.95
2018-05-07T21:29:33.484Z,13.89
2018-05-07T21:32:01.801Z,13.83
2018-05-07T21:34:29.864Z,13.78
2018-05-07T21:36:57.589Z,13.66
2018-05-07T21:39:25.524Z,13.57
2018-05-07T21:41:53.246Z,13.50
2018-05-07T21:44:21.611Z,13.50
2018-05-07T21:46:49.182Z,13.53
2018-05-07T21:49:17.900Z,13.54
2018-05-07T21:51:45.622Z,13.47
2018-05-07T21:54:13.378Z,13.49
2018-05-07T21:56:40.998Z,13.48
2018-05-07T21:59:08.654Z,13.39
2018-05-07T22:01:36.765Z,13.34
2018-05-07T22:04:04.451Z,13.30
2018-05-07T22:06:32.089Z,13.30
2018-05-07T22:09:04.072Z,13.39
2018-05-07T22:11:33.200Z,13.38
2018-05-07T22:14:02.320Z,13.37
2018-05-07T22:16:30.003Z,13.33
2018-05-07T22:18:57.583Z,13.29
2018-05-07T22:21:25.832Z,13.29
2018-05-07T22:23:53.452Z,13.22
2018-05-07T22:26:21.321Z,13.18
2018-05-07T22:28:49.079Z,13.24
2018-05-07T22:31:17.178Z,13.27
2018-05-07T22:33:44.967Z,13.35
2018-05-07T22:36:12.532Z,13.42
2018-05-07T22:38:40.078Z,13.45
2018-05-07T22:41:07.688Z,13.45
2018-05-07T22:43:35.371Z,13.47
2018-05-07T22:46:03.077Z,13.49
2018-05-07T22:48:30.734Z,13.49
2018-05-07T22:50:58.303Z,13.44
2018-05-07T22:53:26.651Z,13.45
2018-05-07T22:55:55.176Z,13.44
2018-05-07T22:58:22.754Z,13.46
2018-05-07T23:00:50.385Z,13.47
2018-05-07T23:03:17.958Z,13.46
2018-05-07T23:05:45.590Z,13.41
2018-05-07T23:08:13.184Z,13.40
2018-05-07T23:10:41.024Z,13.35
2018-05-07T23:13:08.859Z,13.29
2018-05-07T23:15:36.959Z,13.27
2018-05-07T23:18:04.549Z,13.23
2018-05-07T23:20:32.178Z,13.22
2018-05-07T23:22:59.857Z,13.23
2018-05-07T23:25:27.433Z,13.20
2018-05-07T23:27:55.264Z,13.20
2018-05-07T23:30:22.914Z,13.14
2018-05-07T23:32:50.489Z,13.00
2018-05-07T23:35:18.033Z,12.97
2018-05-07T23:37:45.521Z,13.00
2018-05-07T23:40:13.085Z,13.02
2018-05-07T23:42:40.624Z,13.02
2018-05-07T23:45:08.238Z,12.96
2018-05-07T23:47:35.921Z,12.89
2018-05-07T23:50:03.617Z,12.87
2018-05-07T23:52:31.178Z,12.81
2018-05-07T23:54:58.796Z,12.82
2018-05-07T23:57:26.636Z,12.87
2018-05-07T23:59:54.225Z,12.83
